sensor_id;sensor_type;location;lat;lon;timestamp;temperature;humidity
24402;DHT22;12539;48.808;11.292;2022-08-20T10:41:14;20.20;99.90
24402;DHT22;12539;48.808;11.292;2022-08-20T10:43:40;20.40;99.90
24402;DHT22;12539;48.808;11.292;2022-08-20T10:46:06;20.70;99.90
24402;DHT22;12539;48.808;11.292;2022-08-20T10:48:32;21.00;99.90
24402;DHT22;12539;48.808;11.292;2022-08-20T10:50:57;21.20;99.90
24402;DHT22;12539;48.808;11.292;2022-08-20T10:53:23;21.40;99.90
24402;DHT22;12539;48.808;11.292;2022-08-20T10:55:49;21.60;99.90
24402;DHT22;12539;48.808;11.292;2022-08-20T10:58:14;21.80;99.90
24402;DHT22;12539;48.808;11.292;2022-08-20T11:00:40;21.90;99.90
24402;DHT22;12539;48.808;11.292;2022-08-20T11:03:06;22.00;99.90
24402;DHT22;12539;48.808;11.292;2022-08-20T11:05:32;22.10;99.90
24402;DHT22;12539;48.808;11.292;2022-08-20T11:08:01;22.20;99.90
24402;DHT22;12539;48.808;11.292;2022-08-20T11:10:32;22.30;99.90
24402;DHT22;12539;48.808;11.292;2022-08-20T11:12:59;22.30;99.90
24402;DHT22;12539;48.808;11.292;2022-08-20T11:15:25;22.30;99.90
24402;DHT22;12539;48.808;11.292;2022-08-20T11:17:51;22.30;99.90
24402;DHT22;12539;48.808;11.292;2022-08-20T11:20:18;22.30;99.90
24402;DHT22;12539;48.808;11.292;2022-08-20T11:22:44;22.20;99.90
24402;DHT22;12539;48.808;11.292;2022-08-20T11:25:10;22.10;99.90
24402;DHT22;12539;48.808;11.292;2022-08-20T11:27:41;22.00;99.90
24402;DHT22;12539;48.808;11.292;2022-08-20T11:30:14;22.00;99.90
24402;DHT22;12539;48.808;11.292;2022-08-20T11:32:40;22.10;99.90
24402;DHT22;12539;48.808;11.292;2022-08-20T11:35:07;22.00;99.90
24402;DHT22;12539;48.808;11.292;2022-08-20T11:37:33;22.00;99.90
24402;DHT22;12539;48.808;11.292;2022-08-20T11:39:59;22.00;99.90
24402;DHT22;12539;48.808;11.292;2022-08-20T11:42:24;22.10;99.90
24402;DHT22;12539;48.808;11.292;2022-08-20T11:44:50;22.20;99.90
24402;DHT22;12539;48.808;11.292;2022-08-20T11:47:27;22.30;99.90
24402;DHT22;12539;48.808;11.292;2022-08-20T11:50:06;22.40;99.90
24402;DHT22;12539;48.808;11.292;2022-08-20T11:52:33;22.50;99.90
24402;DHT22;12539;48.808;11.292;2022-08-20T11:54:59;22.40;99.90
24402;DHT22;12539;48.808;11.292;2022-08-20T11:57:27;22.50;99.90
24402;DHT22;12539;48.808;11.292;2022-08-20T11:59:54;22.50;99.90
24402;DHT22;12539;48.808;11.292;2022-08-20T12:02:21;22.50;99.90
24402;DHT22;12539;48.808;11.292;2022-08-20T12:04:47;22.50;99.90
24402;DHT22;12539;48.808;11.292;2022-08-20T12:07:16;22.50;99.90
24402;DHT22;12539;48.808;11.292;2022-08-20T12:09:43;22.50;99.90
24402;DHT22;12539;48.808;11.292;2022-08-20T12:12:09;22.30;99.90
24402;DHT22;12539;48.808;11.292;2022-08-20T12:14:34;22.10;99.90
24402;DHT22;12539;48.808;11.292;2022-08-20T12:17:11;21.90;99.90
24402;DHT22;12539;48.808;11.292;2022-08-20T12:19:39;21.90;99.90
24402;DHT22;12539;48.808;11.292;2022-08-20T12:22:06;21.90;99.90
24402;DHT22;12539;48.808;11.292;2022-08-20T12:24:32;21.90;99.90
24402;DHT22;12539;48.808;11.292;2022-08-20T12:27:19;22.00;99.90
24402;DHT22;12539;48.808;11.292;2022-08-20T12:29:47;22.00;99.90
24402;DHT22;12539;48.808;11.292;2022-08-20T12:32:13;21.90;99.90
24402;DHT22;12539;48.808;11.292;2022-08-20T12:34:40;21.90;99.90
24402;DHT22;12539;48.808;11.292;2022-08-20T12:37:13;22.00;99.90
24402;DHT22;12539;48.808;11.292;2022-08-20T12:39:42;21.90;99.90
24402;DHT22;12539;48.808;11.292;2022-08-20T12:42:09;22.00;99.90
24402;DHT22;12539;48.808;11.292;2022-08-20T12:44:41;21.90;99.90
24402;DHT22;12539;48.808;11.292;2022-08-20T12:47:15;21.80;99.90
24402;DHT22;12539;48.808;11.292;2022-08-20T12:49:43;21.90;99.90
24402;DHT22;12539;48.808;11.292;2022-08-20T12:52:13;21.90;99.90
24402;DHT22;12539;48.808;11.292;2022-08-20T12:54:40;21.90;99.90
24402;DHT22;12539;48.808;11.292;2022-08-20T12:57:06;21.90;99.90
24402;DHT22;12539;48.808;11.292;2022-08-20T12:59:37;22.00;99.90
24402;DHT22;12539;48.808;11.292;2022-08-20T13:02:03;22.10;99.90
24402;DHT22;12539;48.808;11.292;2022-08-20T13:04:28;22.20;99.90
24402;DHT22;12539;48.808;11.292;2022-08-20T13:07:00;22.30;99.90
24402;DHT22;12539;48.808;11.292;2022-08-20T13:09:26;22.40;99.90
24402;DHT22;12539;48.808;11.292;2022-08-20T13:11:51;22.50;99.90
24402;DHT22;12539;48.808;11.292;2022-08-20T13:14:17;22.60;99.90
24402;DHT22;12539;48.808;11.292;2022-08-20T13:16:43;22.80;99.90
24402;DHT22;12539;48.808;11.292;2022-08-20T13:19:09;22.90;99.90
24402;DHT22;12539;48.808;11.292;2022-08-20T13:21:34;23.00;99.90
24402;DHT22;12539;48.808;11.292;2022-08-20T13:24:01;23.10;99.90
24402;DHT22;12539;48.808;11.292;2022-08-20T13:26:27;23.20;99.90
24402;DHT22;12539;48.808;11.292;2022-08-20T13:28:52;23.20;99.90
24402;DHT22;12539;48.808;11.292;2022-08-20T13:31:18;23.20;99.90
24402;DHT22;12539;48.808;11.292;2022-08-20T13:33:44;23.30;99.90
24402;DHT22;12539;48.808;11.292;2022-08-20T13:36:10;23.30;99.90
24402;DHT22;12539;48.808;11.292;2022-08-20T13:38:35;23.30;99.90
24402;DHT22;12539;48.808;11.292;2022-08-20T13:41:01;23.20;99.90
24402;DHT22;12539;48.808;11.292;2022-08-20T13:43:27;23.00;99.90
24402;DHT22;12539;48.808;11.292;2022-08-20T13:45:58;22.90;99.90
24402;DHT22;12539;48.808;11.292;2022-08-20T13:48:24;22.80;99.90
24402;DHT22;12539;48.808;11.292;2022-08-20T13:50:49;22.60;99.90
24402;DHT22;12539;48.808;11.292;2022-08-20T13:53:15;22.40;99.90
24402;DHT22;12539;48.808;11.292;2022-08-20T13:55:41;22.30;99.90
24402;DHT22;12539;48.808;11.292;2022-08-20T13:58:07;22.20;99.90
24402;DHT22;12539;48.808;11.292;2022-08-20T14:00:33;22.10;99.90
24402;DHT22;12539;48.808;11.292;2022-08-20T14:03:00;22.10;99.90
24402;DHT22;12539;48.808;11.292;2022-08-20T14:05:27;22.10;99.90
24402;DHT22;12539;48.808;11.292;2022-08-20T14:07:53;22.00;99.90
24402;DHT22;12539;48.808;11.292;2022-08-20T14:10:24;22.00;99.90
24402;DHT22;12539;48.808;11.292;2022-08-20T14:12:51;21.90;99.90
24402;DHT22;12539;48.808;11.292;2022-08-20T14:15:18;21.90;99.90
24402;DHT22;12539;48.808;11.292;2022-08-20T14:17:52;21.80;99.90
24402;DHT22;12539;48.808;11.292;2022-08-20T14:20:19;21.70;99.90
24402;DHT22;12539;48.808;11.292;2022-08-20T14:22:45;21.40;99.90
24402;DHT22;12539;48.808;11.292;2022-08-20T14:25:14;21.30;99.90
24402;DHT22;12539;48.808;11.292;2022-08-20T14:27:40;21.10;99.90
24402;DHT22;12539;48.808;11.292;2022-08-20T14:30:10;21.00;99.90
24402;DHT22;12539;48.808;11.292;2022-08-20T14:32:36;21.00;99.90
24402;DHT22;12539;48.808;11.292;2022-08-20T14:35:02;21.00;99.90
24402;DHT22;12539;48.808;11.292;2022-08-20T14:37:30;21.00;99.90
24402;DHT22;12539;48.808;11.292;2022-08-20T14:39:59;21.10;99.90
24402;DHT22;12539;48.808;11.292;2022-08-20T14:45:06;21.20;99.90
24402;DHT22;12539;48.808;11.292;2022-08-20T14:47:56;21.30;99.90
24402;DHT22;12539;48.808;11.292;2022-08-20T14:50:26;21.40;99.90
24402;DHT22;12539;48.808;11.292;2022-08-20T14:52:59;21.50;99.90
24402;DHT22;12539;48.808;11.292;2022-08-20T14:55:32;21.50;99.90
24402;DHT22;12539;48.808;11.292;2022-08-20T14:58:07;21.60;99.90
24402;DHT22;12539;48.808;11.292;2022-08-20T15:00:41;21.70;99.90
24402;DHT22;12539;48.808;11.292;2022-08-20T15:03:09;21.70;99.90
24402;DHT22;12539;48.808;11.292;2022-08-20T15:05:37;21.80;99.90
24402;DHT22;12539;48.808;11.292;2022-08-20T15:08:03;21.80;99.90
24402;DHT22;12539;48.808;11.292;2022-08-20T15:10:31;21.80;99.90
24402;DHT22;12539;48.808;11.292;2022-08-20T15:13:00;21.70;99.90
24402;DHT22;12539;48.808;11.292;2022-08-20T15:15:29;21.60;99.90
24402;DHT22;12539;48.808;11.292;2022-08-20T15:17:57;21.40;99.90
24402;DHT22;12539;48.808;11.292;2022-08-20T15:20:27;21.20;99.90
24402;DHT22;12539;48.808;11.292;2022-08-20T15:22:53;21.00;99.90
24402;DHT22;12539;48.808;11.292;2022-08-20T15:25:24;20.90;99.90
24402;DHT22;12539;48.808;11.292;2022-08-20T15:27:54;20.90;99.90
24402;DHT22;12539;48.808;11.292;2022-08-20T15:30:21;20.90;99.90
24402;DHT22;12539;48.808;11.292;2022-08-20T15:32:48;20.90;99.90
24402;DHT22;12539;48.808;11.292;2022-08-20T15:35:14;20.90;99.90
24402;DHT22;12539;48.808;11.292;2022-08-20T15:37:43;20.90;99.90
24402;DHT22;12539;48.808;11.292;2022-08-20T15:40:11;21.00;99.90
24402;DHT22;12539;48.808;11.292;2022-08-20T15:42:37;21.10;99.90
24402;DHT22;12539;48.808;11.292;2022-08-20T15:45:05;21.10;99.90
24402;DHT22;12539;48.808;11.292;2022-08-20T15:53:32;21.20;99.90
24402;DHT22;12539;48.808;11.292;2022-08-20T15:56:18;21.20;99.90
24402;DHT22;12539;48.808;11.292;2022-08-20T16:10:32;21.30;99.90
24402;DHT22;12539;48.808;11.292;2022-08-20T16:13:04;21.40;99.90
24402;DHT22;12539;48.808;11.292;2022-08-20T16:15:34;21.40;99.90
24402;DHT22;12539;48.808;11.292;2022-08-20T16:18:17;21.50;99.90
24402;DHT22;12539;48.808;11.292;2022-08-20T16:20:51;21.50;99.90
24402;DHT22;12539;48.808;11.292;2022-08-20T16:23:21;21.40;99.90
24402;DHT22;12539;48.808;11.292;2022-08-20T16:28:23;21.50;99.90
24402;DHT22;12539;48.808;11.292;2022-08-20T16:31:11;21.50;99.90
24402;DHT22;12539;48.808;11.292;2022-08-20T16:33:51;21.50;99.90
24402;DHT22;12539;48.808;11.292;2022-08-20T16:36:32;21.50;99.90
24402;DHT22;12539;48.808;11.292;2022-08-20T16:39:03;21.50;99.90
24402;DHT22;12539;48.808;11.292;2022-08-20T16:41:43;21.50;99.90
24402;DHT22;12539;48.808;11.292;2022-08-20T16:44:12;21.50;99.90
24402;DHT22;12539;48.808;11.292;2022-08-20T16:46:46;21.50;99.90
24402;DHT22;12539;48.808;11.292;2022-08-20T16:49:14;21.60;99.90
24402;DHT22;12539;48.808;11.292;2022-08-20T16:51:45;21.60;99.90
24402;DHT22;12539;48.808;11.292;2022-08-20T16:54:13;21.60;99.90
24402;DHT22;12539;48.808;11.292;2022-08-20T16:56:48;21.70;99.90
24402;DHT22;12539;48.808;11.292;2022-08-20T16:59:22;21.70;99.90
24402;DHT22;12539;48.808;11.292;2022-08-20T17:02:08;21.70;99.90
24402;DHT22;12539;48.808;11.292;2022-08-20T17:04:47;21.80;99.90
24402;DHT22;12539;48.808;11.292;2022-08-20T17:07:13;21.80;99.90
24402;DHT22;12539;48.808;11.292;2022-08-20T17:09:48;21.80;99.90
24402;DHT22;12539;48.808;11.292;2022-08-20T17:12:27;21.80;99.90
24402;DHT22;12539;48.808;11.292;2022-08-20T17:14:56;21.80;99.90
24402;DHT22;12539;48.808;11.292;2022-08-20T17:17:28;21.80;99.90
24402;DHT22;12539;48.808;11.292;2022-08-20T17:20:00;21.80;99.90
24402;DHT22;12539;48.808;11.292;2022-08-20T17:22:28;21.80;99.90
24402;DHT22;12539;48.808;11.292;2022-08-20T17:24:55;21.80;99.90
24402;DHT22;12539;48.808;11.292;2022-08-20T17:32:32;21.80;99.90
24402;DHT22;12539;48.808;11.292;2022-08-20T17:35:00;21.80;99.90
24402;DHT22;12539;48.808;11.292;2022-08-20T17:37:32;21.80;99.90
24402;DHT22;12539;48.808;11.292;2022-08-20T17:40:18;21.80;99.90
24402;DHT22;12539;48.808;11.292;2022-08-20T17:42:51;21.80;99.90
24402;DHT22;12539;48.808;11.292;2022-08-20T17:45:23;21.70;99.90
24402;DHT22;12539;48.808;11.292;2022-08-20T17:47:51;21.70;99.90
24402;DHT22;12539;48.808;11.292;2022-08-20T17:50:22;21.70;99.90
24402;DHT22;12539;48.808;11.292;2022-08-20T17:52:52;21.70;99.90
24402;DHT22;12539;48.808;11.292;2022-08-20T17:55:19;21.70;99.90
24402;DHT22;12539;48.808;11.292;2022-08-20T17:57:48;21.70;99.90
24402;DHT22;12539;48.808;11.292;2022-08-20T18:00:20;21.80;99.90
24402;DHT22;12539;48.808;11.292;2022-08-20T18:03:01;21.80;99.90
24402;DHT22;12539;48.808;11.292;2022-08-20T18:05:33;21.80;99.90
24402;DHT22;12539;48.808;11.292;2022-08-20T18:24:50;21.60;99.90
24402;DHT22;12539;48.808;11.292;2022-08-20T18:27:18;21.60;99.90
24402;DHT22;12539;48.808;11.292;2022-08-20T18:29:48;21.50;99.90
24402;DHT22;12539;48.808;11.292;2022-08-20T18:32:32;21.50;99.90
24402;DHT22;12539;48.808;11.292;2022-08-20T18:35:19;21.50;99.90
24402;DHT22;12539;48.808;11.292;2022-08-20T18:37:46;21.40;99.90
24402;DHT22;12539;48.808;11.292;2022-08-20T18:40:25;21.40;99.90
24402;DHT22;12539;48.808;11.292;2022-08-20T18:42:51;21.40;99.90
24402;DHT22;12539;48.808;11.292;2022-08-20T18:45:32;21.40;99.90
24402;DHT22;12539;48.808;11.292;2022-08-20T18:47:59;21.30;99.90
24402;DHT22;12539;48.808;11.292;2022-08-20T18:53:17;21.30;99.90
24402;DHT22;12539;48.808;11.292;2022-08-20T18:56:03;21.20;99.90
24402;DHT22;12539;48.808;11.292;2022-08-20T19:01:08;21.10;99.90
24402;DHT22;12539;48.808;11.292;2022-08-20T19:03:42;21.10;99.90
24402;DHT22;12539;48.808;11.292;2022-08-20T19:06:24;20.90;99.90
24402;DHT22;12539;48.808;11.292;2022-08-20T19:09:16;20.80;99.90
24402;DHT22;12539;48.808;11.292;2022-08-20T19:15:11;20.50;99.90
24402;DHT22;12539;48.808;11.292;2022-08-20T19:20:58;20.30;99.90
24402;DHT22;12539;48.808;11.292;2022-08-20T19:23:26;20.30;99.90
24402;DHT22;12539;48.808;11.292;2022-08-20T19:25:59;20.20;99.90
24402;DHT22;12539;48.808;11.292;2022-08-20T19:28:33;20.20;99.90
24402;DHT22;12539;48.808;11.292;2022-08-20T19:31:15;20.10;99.90
24402;DHT22;12539;48.808;11.292;2022-08-20T19:33:43;20.10;99.90
24402;DHT22;12539;48.808;11.292;2022-08-20T19:36:19;20.00;99.90
24402;DHT22;12539;48.808;11.292;2022-08-20T19:39:00;20.00;99.90
24402;DHT22;12539;48.808;11.292;2022-08-20T19:41:28;20.10;99.90
24402;DHT22;12539;48.808;11.292;2022-08-20T19:43:55;20.00;99.90
24402;DHT22;12539;48.808;11.292;2022-08-20T19:46:39;20.10;99.90
24402;DHT22;12539;48.808;11.292;2022-08-20T19:54:26;20.10;99.90
24402;DHT22;12539;48.808;11.292;2022-08-20T19:56:57;20.00;99.90
24402;DHT22;12539;48.808;11.292;2022-08-20T19:59:23;20.00;99.90
24402;DHT22;12539;48.808;11.292;2022-08-20T20:02:00;20.00;99.90
24402;DHT22;12539;48.808;11.292;2022-08-20T20:04:47;20.00;99.90
24402;DHT22;12539;48.808;11.292;2022-08-20T20:07:23;20.00;99.90
24402;DHT22;12539;48.808;11.292;2022-08-20T20:09:53;20.00;99.90
24402;DHT22;12539;48.808;11.292;2022-08-20T20:12:20;20.00;99.90
24402;DHT22;12539;48.808;11.292;2022-08-20T20:14:47;20.00;99.90
24402;DHT22;12539;48.808;11.292;2022-08-20T20:17:18;20.00;99.90
24402;DHT22;12539;48.808;11.292;2022-08-20T20:19:54;20.10;99.90
24402;DHT22;12539;48.808;11.292;2022-08-20T20:22:57;20.10;99.90
24402;DHT22;12539;48.808;11.292;2022-08-20T20:25:37;20.10;99.90
24402;DHT22;12539;48.808;11.292;2022-08-20T20:28:18;20.20;99.90
24402;DHT22;12539;48.808;11.292;2022-08-20T20:30:45;20.20;99.90
24402;DHT22;12539;48.808;11.292;2022-08-20T20:35:44;20.30;99.90
24402;DHT22;12539;48.808;11.292;2022-08-20T20:38:25;20.30;99.90
24402;DHT22;12539;48.808;11.292;2022-08-20T20:40:54;20.40;99.90
24402;DHT22;12539;48.808;11.292;2022-08-20T20:43:36;20.40;99.90
24402;DHT22;12539;48.808;11.292;2022-08-20T20:46:17;20.40;99.90
24402;DHT22;12539;48.808;11.292;2022-08-20T20:48:58;20.40;99.90
24402;DHT22;12539;48.808;11.292;2022-08-20T20:51:29;20.40;99.90
24402;DHT22;12539;48.808;11.292;2022-08-20T20:53:59;20.40;99.90
24402;DHT22;12539;48.808;11.292;2022-08-20T20:56:38;20.40;99.90
24402;DHT22;12539;48.808;11.292;2022-08-20T20:59:07;20.30;99.90
24402;DHT22;12539;48.808;11.292;2022-08-20T21:01:37;20.20;99.90
24402;DHT22;12539;48.808;11.292;2022-08-20T21:04:03;20.20;99.90
24402;DHT22;12539;48.808;11.292;2022-08-20T21:06:30;20.20;99.90
24402;DHT22;12539;48.808;11.292;2022-08-20T21:08:56;20.20;99.90
24402;DHT22;12539;48.808;11.292;2022-08-20T21:11:23;20.10;99.90
24402;DHT22;12539;48.808;11.292;2022-08-20T21:13:49;20.00;99.90
24402;DHT22;12539;48.808;11.292;2022-08-20T21:16:15;20.00;99.90
24402;DHT22;12539;48.808;11.292;2022-08-20T21:18:41;20.00;99.90
24402;DHT22;12539;48.808;11.292;2022-08-20T21:21:08;19.90;99.90
24402;DHT22;12539;48.808;11.292;2022-08-20T21:23:34;19.90;99.90
24402;DHT22;12539;48.808;11.292;2022-08-20T21:26:01;19.90;99.90
24402;DHT22;12539;48.808;11.292;2022-08-20T21:28:29;19.90;99.90
24402;DHT22;12539;48.808;11.292;2022-08-20T21:30:55;19.90;99.90
24402;DHT22;12539;48.808;11.292;2022-08-20T21:33:21;20.00;99.90
24402;DHT22;12539;48.808;11.292;2022-08-20T21:35:47;20.00;99.90
24402;DHT22;12539;48.808;11.292;2022-08-20T21:38:13;20.00;99.90
24402;DHT22;12539;48.808;11.292;2022-08-20T21:40:39;20.10;99.90
24402;DHT22;12539;48.808;11.292;2022-08-20T21:43:05;20.10;99.90
24402;DHT22;12539;48.808;11.292;2022-08-20T21:45:31;20.20;99.90
24402;DHT22;12539;48.808;11.292;2022-08-20T21:47:57;20.20;99.90
24402;DHT22;12539;48.808;11.292;2022-08-20T21:50:24;20.20;99.90
24402;DHT22;12539;48.808;11.292;2022-08-20T21:52:50;20.30;99.90
24402;DHT22;12539;48.808;11.292;2022-08-20T21:55:16;20.30;99.90
24402;DHT22;12539;48.808;11.292;2022-08-20T21:57:42;20.40;99.90
24402;DHT22;12539;48.808;11.292;2022-08-20T22:00:18;20.40;99.90
24402;DHT22;12539;48.808;11.292;2022-08-20T22:02:46;20.40;99.90
24402;DHT22;12539;48.808;11.292;2022-08-20T22:05:14;20.50;99.90
24402;DHT22;12539;48.808;11.292;2022-08-20T22:07:41;20.50;99.90
24402;DHT22;12539;48.808;11.292;2022-08-20T22:10:10;20.50;99.90
24402;DHT22;12539;48.808;11.292;2022-08-20T22:12:36;20.50;99.90
24402;DHT22;12539;48.808;11.292;2022-08-20T22:15:02;20.50;99.90
24402;DHT22;12539;48.808;11.292;2022-08-20T22:17:29;20.50;99.90
24402;DHT22;12539;48.808;11.292;2022-08-20T22:19:54;20.50;99.90
24402;DHT22;12539;48.808;11.292;2022-08-20T22:22:20;20.50;99.90
24402;DHT22;12539;48.808;11.292;2022-08-20T22:24:46;20.50;99.90
24402;DHT22;12539;48.808;11.292;2022-08-20T22:27:12;20.50;99.90
24402;DHT22;12539;48.808;11.292;2022-08-20T22:29:38;20.50;99.90
24402;DHT22;12539;48.808;11.292;2022-08-20T22:32:04;20.50;99.90
24402;DHT22;12539;48.808;11.292;2022-08-20T22:34:32;20.50;99.90
24402;DHT22;12539;48.808;11.292;2022-08-20T22:36:59;20.50;99.90
24402;DHT22;12539;48.808;11.292;2022-08-20T22:39:26;20.50;99.90
24402;DHT22;12539;48.808;11.292;2022-08-20T22:41:52;20.50;99.90
24402;DHT22;12539;48.808;11.292;2022-08-20T22:44:18;20.50;99.90
24402;DHT22;12539;48.808;11.292;2022-08-20T22:46:43;20.50;99.90
24402;DHT22;12539;48.808;11.292;2022-08-20T22:49:13;20.50;99.90
24402;DHT22;12539;48.808;11.292;2022-08-20T22:51:42;20.50;99.90
24402;DHT22;12539;48.808;11.292;2022-08-20T22:54:10;20.40;99.90
24402;DHT22;12539;48.808;11.292;2022-08-20T22:56:37;20.40;99.90
24402;DHT22;12539;48.808;11.292;2022-08-20T22:59:03;20.40;99.90
24402;DHT22;12539;48.808;11.292;2022-08-20T23:01:30;20.40;99.90
24402;DHT22;12539;48.808;11.292;2022-08-20T23:04:00;20.30;99.90
24402;DHT22;12539;48.808;11.292;2022-08-20T23:06:28;20.30;99.90
24402;DHT22;12539;48.808;11.292;2022-08-20T23:08:54;20.30;99.90
24402;DHT22;12539;48.808;11.292;2022-08-20T23:11:20;20.20;99.90
24402;DHT22;12539;48.808;11.292;2022-08-20T23:13:45;20.20;99.90
24402;DHT22;12539;48.808;11.292;2022-08-20T23:16:11;20.10;99.90
24402;DHT22;12539;48.808;11.292;2022-08-20T23:18:37;20.10;99.90
24402;DHT22;12539;48.808;11.292;2022-08-20T23:21:03;20.00;99.90
24402;DHT22;12539;48.808;11.292;2022-08-20T23:23:29;20.00;99.90
24402;DHT22;12539;48.808;11.292;2022-08-20T23:25:55;20.00;99.90
24402;DHT22;12539;48.808;11.292;2022-08-20T23:28:22;20.00;99.90
24402;DHT22;12539;48.808;11.292;2022-08-20T23:30:49;20.00;99.90
24402;DHT22;12539;48.808;11.292;2022-08-20T23:33:15;19.90;99.90
24402;DHT22;12539;48.808;11.292;2022-08-20T23:35:41;19.90;99.90
24402;DHT22;12539;48.808;11.292;2022-08-20T23:38:08;19.90;99.90
24402;DHT22;12539;48.808;11.292;2022-08-20T23:40:34;19.80;99.90
24402;DHT22;12539;48.808;11.292;2022-08-20T23:43:00;19.90;99.90
24402;DHT22;12539;48.808;11.292;2022-08-20T23:45:27;19.90;99.90
24402;DHT22;12539;48.808;11.292;2022-08-20T23:47:53;19.90;99.90
24402;DHT22;12539;48.808;11.292;2022-08-20T23:50:22;19.90;99.90
24402;DHT22;12539;48.808;11.292;2022-08-20T23:52:48;20.00;99.90
24402;DHT22;12539;48.808;11.292;2022-08-20T23:55:14;20.00;99.90
24402;DHT22;12539;48.808;11.292;2022-08-20T23:57:40;20.00;99.90
